createdAt,value
2018-07-31T00:02:47.297Z,4.97
2018-07-31T00:07:51.284Z,8.77
2018-07-31T00:12:54.817Z,5.83
2018-07-31T00:17:58.753Z,5.57
2018-07-31T00:23:02.311Z,5.27
2018-07-31T00:28:05.810Z,8.17
2018-07-31T00:33:09.491Z,7.30
2018-07-31T00:38:13.102Z,7.07
2018-07-31T00:43:16.861Z,7.10
2018-07-31T00:48:20.357Z,9.20
2018-07-31T00:53:23.933Z,7.27
2018-07-31T00:58:27.483Z,8.67
2018-07-31T01:03:31.012Z,7.83
2018-07-31T01:08:34.592Z,7.37
2018-07-31T01:13:38.699Z,6.87
2018-07-31T01:18:42.185Z,7.80
2018-07-31T01:23:45.741Z,8.40
2018-07-31T01:28:49.213Z,6.23
2018-07-31T01:33:53.105Z,6.83
2018-07-31T01:38:56.673Z,9.73
2018-07-31T01:44:00.245Z,6.73
2018-07-31T01:49:03.821Z,6.97
2018-07-31T01:54:07.414Z,5.87
2018-07-31T01:59:10.937Z,7.03
2018-07-31T02:04:14.498Z,5.33
2018-07-31T02:09:18.251Z,5.60
2018-07-31T02:14:21.881Z,6.07
2018-07-31T02:19:25.424Z,8.43
2018-07-31T02:24:29.029Z,7.30
2018-07-31T02:29:37.982Z,10.03
2018-07-31T02:34:41.529Z,7.10
2018-07-31T02:39:45.130Z,6.73
2018-07-31T02:44:56.909Z,7.00
2018-07-31T02:50:00.534Z,6.77
2018-07-31T02:55:04.177Z,9.10
2018-07-31T03:00:08.907Z,8.13
2018-07-31T03:05:12.950Z,7.60
2018-07-31T03:10:16.532Z,7.13
2018-07-31T03:15:20.168Z,8.30
2018-07-31T03:20:23.682Z,7.07
2018-07-31T03:25:27.412Z,8.97
2018-07-31T03:30:31.454Z,5.83
2018-07-31T03:35:35.137Z,6.93
2018-07-31T03:40:38.657Z,8.17
2018-07-31T03:45:42.576Z,7.57
2018-07-31T03:50:46.199Z,10.93
2018-07-31T03:55:49.785Z,7.07
2018-07-31T04:00:53.237Z,8.80
2018-07-31T04:05:56.808Z,9.53
2018-07-31T04:11:00.275Z,8.77
2018-07-31T04:16:03.870Z,8.93
2018-07-31T04:21:07.602Z,10.53
2018-07-31T04:26:11.640Z,10.33
2018-07-31T04:31:15.154Z,9.70
2018-07-31T04:36:19.036Z,8.47
2018-07-31T04:41:22.708Z,14.03
2018-07-31T04:46:26.301Z,12.70
2018-07-31T04:51:29.848Z,9.67
2018-07-31T04:56:33.535Z,9.93
2018-07-31T05:01:37.144Z,19.10
2018-07-31T05:06:40.691Z,10.10
2018-07-31T05:11:44.222Z,9.77
2018-07-31T05:16:47.929Z,11.40
2018-07-31T05:21:51.478Z,13.97
2018-07-31T05:26:55.096Z,11.83
2018-07-31T05:31:58.774Z,17.17
2018-07-31T05:37:02.367Z,12.77
2018-07-31T05:42:05.913Z,13.63
2018-07-31T05:47:09.501Z,15.57
2018-07-31T05:52:13.148Z,15.43
2018-07-31T05:57:16.859Z,16.03
2018-07-31T06:02:20.318Z,11.80
2018-07-31T06:07:23.890Z,17.17
2018-07-31T06:12:28.682Z,13.80
2018-07-31T06:17:32.349Z,14.27
2018-07-31T06:22:37.655Z,14.50
2018-07-31T06:27:41.744Z,14.67
2018-07-31T06:32:45.477Z,14.43
2018-07-31T06:37:49.133Z,14.57
2018-07-31T06:42:54.276Z,14.30
2018-07-31T06:48:00.254Z,15.47
2018-07-31T06:53:03.905Z,12.73
2018-07-31T06:58:07.982Z,14.87
2018-07-31T07:03:11.469Z,17.00
2018-07-31T07:08:15.287Z,13.97
2018-07-31T07:13:19.204Z,15.60
2018-07-31T07:18:22.837Z,15.20
2018-07-31T07:23:26.487Z,16.03
2018-07-31T07:28:30.155Z,17.67
2018-07-31T07:33:34.322Z,14.03
2018-07-31T07:38:38.034Z,21.83
2018-07-31T07:43:43.403Z,16.97
2018-07-31T07:48:46.986Z,13.17
2018-07-31T07:53:51.335Z,13.60
2018-07-31T07:58:55.035Z,12.57
2018-07-31T08:03:58.630Z,13.37
2018-07-31T08:09:04.739Z,15.93
2018-07-31T08:14:08.394Z,12.73
2018-07-31T08:19:12.405Z,14.47
2018-07-31T08:24:16.627Z,12.40
2018-07-31T08:29:20.261Z,12.57
2018-07-31T08:34:23.959Z,13.07
2018-07-31T08:39:27.773Z,14.53
2018-07-31T08:44:31.353Z,10.60
2018-07-31T08:49:35.197Z,10.07
2018-07-31T08:54:38.847Z,10.20
2018-07-31T08:59:42.691Z,15.13
2018-07-31T09:04:46.286Z,8.37
2018-07-31T09:09:50.431Z,17.83
2018-07-31T09:14:54.118Z,13.67
2018-07-31T09:19:57.767Z,9.83
2018-07-31T09:25:02.088Z,8.10
2018-07-31T09:30:09.715Z,11.07
2018-07-31T09:35:13.322Z,5.53
2018-07-31T09:40:17.009Z,7.33
2018-07-31T09:45:20.892Z,9.70
2018-07-31T09:50:24.473Z,5.57
2018-07-31T09:55:28.072Z,4.27
2018-07-31T10:00:37.026Z,6.67
2018-07-31T10:05:40.615Z,3.87
2018-07-31T10:10:44.258Z,4.57
2018-07-31T10:15:47.819Z,4.60
2018-07-31T10:20:51.600Z,3.67
2018-07-31T10:25:55.234Z,3.13
2018-07-31T10:30:58.951Z,5.30
2018-07-31T10:36:03.082Z,2.80
2018-07-31T10:41:06.805Z,3.00
2018-07-31T10:46:10.436Z,5.50
2018-07-31T10:51:14.121Z,4.23
2018-07-31T10:56:17.691Z,6.20
2018-07-31T11:01:21.398Z,4.83
2018-07-31T11:06:25.123Z,5.20
2018-07-31T11:11:28.737Z,2.93
2018-07-31T11:16:32.438Z,2.23
2018-07-31T11:21:36.003Z,3.37
2018-07-31T11:26:39.796Z,5.03
2018-07-31T11:31:43.366Z,2.33
2018-07-31T11:36:47.478Z,2.30
2018-07-31T11:41:51.061Z,3.77
2018-07-31T11:46:54.613Z,4.90
2018-07-31T11:51:58.368Z,3.23
2018-07-31T11:57:01.929Z,2.77
2018-07-31T12:02:05.596Z,5.70
2018-07-31T12:07:18.647Z,8.57
2018-07-31T12:12:22.275Z,8.37
2018-07-31T12:17:26.793Z,7.07
2018-07-31T12:22:31.028Z,7.93
2018-07-31T12:27:35.397Z,4.80
2018-07-31T12:32:39.807Z,3.97
2018-07-31T12:37:43.454Z,2.50
2018-07-31T12:42:48.369Z,4.00
2018-07-31T12:47:54.528Z,2.80
2018-07-31T12:53:00.343Z,3.23
2018-07-31T12:58:06.092Z,3.67
2018-07-31T13:03:11.927Z,3.47
2018-07-31T13:08:16.601Z,3.67
2018-07-31T13:13:22.271Z,5.10
2018-07-31T13:18:27.198Z,3.10
2018-07-31T13:23:32.293Z,5.60
2018-07-31T13:28:36.853Z,3.07
2018-07-31T13:33:41.570Z,2.33
2018-07-31T13:38:46.477Z,4.23
2018-07-31T13:43:51.257Z,3.07
2018-07-31T13:48:55.206Z,4.93
2018-07-31T13:53:59.066Z,3.87
2018-07-31T13:59:02.670Z,4.13
2018-07-31T14:04:06.534Z,2.77
2018-07-31T14:09:10.986Z,5.20
2018-07-31T14:14:15.635Z,3.67
2018-07-31T14:19:20.516Z,2.50
2018-07-31T14:24:25.184Z,3.50
2018-07-31T14:29:30.402Z,12.03
2018-07-31T14:34:35.023Z,3.50
2018-07-31T14:39:38.657Z,4.43
2018-07-31T14:44:42.234Z,2.70
2018-07-31T14:49:45.746Z,4.27
2018-07-31T14:54:49.423Z,4.77
2018-07-31T14:59:53.256Z,4.67
2018-07-31T15:04:56.853Z,2.30
2018-07-31T15:10:00.357Z,5.73
2018-07-31T15:15:03.991Z,4.30
2018-07-31T15:20:07.624Z,2.90
2018-07-31T15:25:11.209Z,1.93
2018-07-31T15:30:16.288Z,3.53
2018-07-31T15:35:19.992Z,5.13
2018-07-31T15:40:23.471Z,2.77
2018-07-31T15:45:34.645Z,4.07
2018-07-31T15:50:38.245Z,8.40
2018-07-31T15:55:41.751Z,2.47
2018-07-31T16:00:46.284Z,4.37
2018-07-31T16:05:49.843Z,4.10
2018-07-31T16:10:54.346Z,2.00
2018-07-31T16:15:57.919Z,3.23
2018-07-31T16:21:01.701Z,2.23
2018-07-31T16:26:05.260Z,3.27
2018-07-31T16:31:08.551Z,2.50
2018-07-31T16:36:12.110Z,2.47
2018-07-31T16:41:16.463Z,1.80
2018-07-31T16:46:19.991Z,4.47
2018-07-31T16:51:23.786Z,2.87
2018-07-31T16:56:28.275Z,2.80
2018-07-31T17:01:31.896Z,1.97
2018-07-31T17:06:35.444Z,3.00
2018-07-31T17:11:39.036Z,5.10
2018-07-31T17:16:42.627Z,2.57
2018-07-31T17:21:46.244Z,2.47
2018-07-31T17:26:49.919Z,3.77
2018-07-31T17:31:53.492Z,3.00
2018-07-31T17:36:57.199Z,2.73
2018-07-31T17:42:00.772Z,4.77
2018-07-31T17:47:04.416Z,4.20
2018-07-31T17:52:08.029Z,1.90
2018-07-31T17:57:11.554Z,3.87
2018-07-31T18:02:15.139Z,4.43
2018-07-31T18:07:19.040Z,3.43
2018-07-31T18:12:23.454Z,3.63
2018-07-31T18:17:27.045Z,6.43
2018-07-31T18:22:30.993Z,4.50
2018-07-31T18:27:35.806Z,7.93
2018-07-31T18:32:39.937Z,4.10
2018-07-31T18:37:43.641Z,4.73
2018-07-31T18:42:47.225Z,5.77
2018-07-31T18:47:50.889Z,4.73
2018-07-31T18:52:55.093Z,5.97
2018-07-31T18:57:58.916Z,5.43
2018-07-31T19:03:02.560Z,6.20
2018-07-31T19:08:06.205Z,4.47
2018-07-31T19:13:10.886Z,3.57
2018-07-31T19:18:15.246Z,6.10
2018-07-31T19:25:43.926Z,4.17
2018-07-31T19:30:47.439Z,5.63
2018-07-31T19:35:51.909Z,4.13
2018-07-31T19:40:55.478Z,3.43
2018-07-31T19:45:59.028Z,5.53
2018-07-31T19:51:03.451Z,4.17
2018-07-31T19:56:07.238Z,3.53
2018-07-31T20:01:11.691Z,3.13
2018-07-31T20:06:15.369Z,3.73
2018-07-31T20:11:18.881Z,3.60
2018-07-31T20:16:22.649Z,4.50
2018-07-31T20:21:26.145Z,4.77
2018-07-31T20:26:29.893Z,5.13
2018-07-31T20:31:33.508Z,5.93
2018-07-31T20:36:37.320Z,3.47
2018-07-31T20:41:41.623Z,5.00
2018-07-31T20:46:45.151Z,3.97
2018-07-31T20:51:48.727Z,5.20
2018-07-31T20:56:52.388Z,30.47
2018-07-31T21:01:55.959Z,341.23
2018-07-31T21:06:59.573Z,242.13
2018-07-31T21:12:03.256Z,242.07
2018-07-31T21:17:06.878Z,195.67
2018-07-31T21:22:10.425Z,197.97
2018-07-31T21:27:14.738Z,257.30
2018-07-31T21:32:20.500Z,173.47
2018-07-31T21:37:24.292Z,104.93
2018-07-31T21:42:28.365Z,110.07
2018-07-31T21:47:32.057Z,104.00
2018-07-31T21:52:36.082Z,107.47
2018-07-31T21:57:41.140Z,107.63
2018-07-31T22:02:44.660Z,98.03
2018-07-31T22:07:48.975Z,99.83
2018-07-31T22:12:52.656Z,106.37
2018-07-31T22:17:56.241Z,96.53
2018-07-31T22:23:00.387Z,97.17
2018-07-31T22:28:04.009Z,105.20
2018-07-31T22:33:08.451Z,103.90
2018-07-31T22:38:12.792Z,103.73
2018-07-31T22:43:16.697Z,105.60
2018-07-31T22:48:20.619Z,98.23
2018-07-31T22:53:24.833Z,102.80
2018-07-31T22:58:29.003Z,96.90
2018-07-31T23:03:32.549Z,92.23
2018-07-31T23:08:36.124Z,92.80
2018-07-31T23:13:39.877Z,94.37
2018-07-31T23:18:43.548Z,102.00
2018-07-31T23:23:47.705Z,92.70
2018-07-31T23:28:51.699Z,49.33
2018-07-31T23:33:56.149Z,60.47
2018-07-31T23:39:00.633Z,66.70
2018-07-31T23:44:04.379Z,65.83
2018-07-31T23:49:08.006Z,63.40
2018-07-31T23:54:11.724Z,66.33
2018-07-31T23:59:16.127Z,65.67
